Estación Meteorológica Peña el Pijo (Robertgarden) [ 02/03/23 03:36:47 CET ]

Fecha Hora Presion(HPa) Temp (°C) Humedad % Rocio (°C) Viento ( m/s) Direccion Lluvia 1Hora(mm) Lluvia 24H(mm) LLuvia Total(mm)
2012-Oct-09 01:01:18 1014.800 12.7 60 5.1         178.19
2012-Oct-09 02:01:21 1014.600 11.8 63 5.0         178.19
2012-Oct-09 03:01:56 1014.400 11.1 67 5.2         178.19
2012-Oct-09 04:03:20 1014.200 11.1 70 5.9         178.19
2012-Oct-09 05:01:19 1013.700 11.2 73 6.5         178.19
2012-Oct-09 06:01:21 1013.800 11.4 73 6.7         178.19
2012-Oct-09 07:01:16 1013.900 11.0 74 6.6         178.19
2012-Oct-09 08:01:18 1013.900 10.4 76 6.3         178.19
2012-Oct-09 09:01:16 1014.000 10.1 76 6.0         178.19
2012-Oct-09 10:01:19 1014.400 17.9 59 9.7         178.19
2012-Oct-09 11:01:14 1014.700 22.4 42 8.8         178.19
2012-Oct-09 12:01:17 1014.300 26.8 40 12.1         178.19
2012-Oct-09 13:01:12 1013.900 28.8 33 10.8         178.19
2012-Oct-09 14:01:16 1013.200 31.2 28 10.4         178.19
2012-Oct-09 15:01:13 1012.400 32.3 25 9.6         178.19
2012-Oct-09 16:01:16 1011.900 32.5 25 9.7         178.19
2012-Oct-09 17:01:16 1011.700 33.0 25 10.2         178.19
2012-Oct-09 18:01:16 1011.700 29.8 27 8.6         178.19
2012-Oct-09 19:01:12 1011.800 24.9 35 8.3         178.19
2012-Oct-09 20:01:12 1012.400 20.7 47 8.9         178.19
2012-Oct-09 21:01:14 1012.700 17.1 58 8.8         178.19
2012-Oct-09 22:01:11 1012.900 15.4 63 8.4         178.19
2012-Oct-09 23:01:13 1013.300 14.7 65 8.2         178.19

Temperatura Máxima:33°    Temperatura Mínima:10°
Presión Máxima:1014.800 Hpa    Presión Mínima:1011.700 Hpa


Volver